Time;durP1;ratioP1;P1;durP2;ratioP2;P2;SDS_P1;SDS_P2;PMS_P1;PMS_P2;Temp;Humidity;BMP_temperature;BMP_pressure;BME280_temperature;BME280_humidity;BME280_pressure;Samples;Min_cycle;Max_cycle;Signal;HPM_P1;HPM_P2
2023/02/06 00:01:50;;;;;;;1.48;1.10;;;20.00;70.10;;;;;;5078138;28;20204;-55
2023/02/06 00:04:17;;;;;;;1.58;1.00;;;20.00;70.10;;;;;;5071437;28;20213;-51
2023/02/06 00:06:44;;;;;;;1.50;0.90;;;19.90;70.00;;;;;;5076914;28;20207;-56
2023/02/06 00:09:13;;;;;;;1.10;1.00;;;19.90;70.00;;;;;;5069908;28;20197;-53
2023/02/06 00:11:40;;;;;;;2.17;1.00;;;19.90;70.00;;;;;;5069606;28;20261;-61
2023/02/06 00:14:06;;;;;;;1.75;1.02;;;19.90;70.00;;;;;;5077362;28;20569;-52
2023/02/06 00:16:34;;;;;;;1.40;1.00;;;19.90;70.80;;;;;;5075304;28;20195;-52
2023/02/06 00:19:01;;;;;;;3.33;1.05;;;19.90;70.00;;;;;;5074546;28;20201;-54
2023/02/06 00:21:29;;;;;;;3.50;0.90;;;19.90;70.00;;;;;;5084179;28;20215;-55
2023/02/06 00:23:58;;;;;;;1.35;1.10;;;19.90;70.00;;;;;;5077361;28;20197;-58
2023/02/06 00:26:26;;;;;;;2.33;1.00;;;19.90;70.10;;;;;;5076201;28;20206;-52
2023/02/06 00:28:53;;;;;;;1.52;0.90;;;19.90;70.10;;;;;;5081868;28;20705;-55
2023/02/06 00:31:20;;;;;;;1.10;1.00;;;19.90;70.10;;;;;;5078352;28;20220;-54
2023/02/06 00:33:46;;;;;;;1.65;0.80;;;19.90;70.10;;;;;;5073615;28;20199;-52
2023/02/06 00:36:13;;;;;;;1.00;0.80;;;19.90;70.10;;;;;;5078534;28;20208;-53
2023/02/06 00:38:40;;;;;;;1.20;1.08;;;19.90;70.10;;;;;;5067752;28;20203;-58
2023/02/06 00:41:07;;;;;;;1.83;0.90;;;19.90;70.10;;;;;;5071593;28;20224;-60
2023/02/06 00:43:35;;;;;;;1.05;0.80;;;19.90;70.10;;;;;;5072341;28;20194;-55
2023/02/06 00:46:02;;;;;;;1.20;0.90;;;19.90;70.10;;;;;;5075273;28;20700;-56
2023/02/06 00:48:28;;;;;;;1.02;0.85;;;19.90;70.10;;;;;;5080827;28;20199;-55
2023/02/06 00:50:55;;;;;;;1.10;0.93;;;19.90;70.10;;;;;;5079736;28;20210;-55
2023/02/06 00:53:22;;;;;;;1.20;0.93;;;19.90;70.10;;;;;;5080865;28;20201;-59
2023/02/06 00:55:49;;;;;;;2.65;1.13;;;19.90;70.10;;;;;;5079973;28;20208;-58
2023/02/06 00:58:16;;;;;;;1.55;1.00;;;19.90;70.10;;;;;;5082839;28;20209;-56
2023/02/06 01:00:44;;;;;;;1.25;0.80;;;19.90;70.10;;;;;;5073002;28;20583;-55
2023/02/06 01:03:11;;;;;;;1.50;0.90;;;19.90;70.10;;;;;;5073679;28;20202;-64
2023/02/06 01:05:38;;;;;;;1.00;0.80;;;19.90;70.10;;;;;;5070306;28;20307;-53
2023/02/06 01:08:05;;;;;;;1.40;0.80;;;19.90;70.10;;;;;;5076104;28;20202;-55
2023/02/06 01:10:31;;;;;;;1.30;0.90;;;19.90;70.10;;;;;;5074934;28;20205;-54
2023/02/06 01:12:58;;;;;;;1.17;0.90;;;19.90;70.10;;;;;;5077813;28;20220;-55
2023/02/06 01:15:25;;;;;;;1.10;0.90;;;19.90;70.10;;;;;;5074491;28;20202;-52
2023/02/06 01:17:53;;;;;;;1.00;0.88;;;19.90;70.10;;;;;;5080164;28;20548;-54
2023/02/06 01:20:21;;;;;;;1.08;0.80;;;19.90;70.10;;;;;;5083120;28;20229;-54
2023/02/06 01:22:48;;;;;;;1.30;0.90;;;19.90;70.10;;;;;;5080295;28;20561;-52
2023/02/06 01:25:15;;;;;;;1.40;0.98;;;19.90;70.10;;;;;;5078823;28;20202;-55
2023/02/06 01:27:42;;;;;;;1.15;0.90;;;19.90;70.10;;;;;;5087576;28;20207;-67
2023/02/06 01:30:10;;;;;;;1.10;0.80;;;19.90;70.10;;;;;;5084493;28;20208;-62
2023/02/06 01:32:37;;;;;;;1.20;1.08;;;19.80;70.10;;;;;;5072578;28;20676;-57
2023/02/06 01:35:07;;;;;;;1.02;0.70;;;19.80;70.00;;;;;;5075965;28;20626;-55
2023/02/06 01:37:34;;;;;;;1.10;0.88;;;19.80;70.00;;;;;;5074455;28;20202;-56
2023/02/06 01:40:01;;;;;;;1.40;1.00;;;19.80;70.00;;;;;;5080190;28;20199;-52
2023/02/06 01:42:28;;;;;;;1.40;0.90;;;19.80;70.00;;;;;;5082131;28;20742;-53
2023/02/06 01:45:17;;;;;;;1.15;0.85;;;19.80;70.00;;;;;;5078541;28;20205;-58
2023/02/06 01:47:44;;;;;;;1.30;0.90;;;19.80;70.00;;;;;;5071364;28;20197;-53
2023/02/06 01:50:12;;;;;;;1.35;0.98;;;19.80;70.00;;;;;;5077023;28;20216;-55
2023/02/06 01:52:39;;;;;;;1.33;0.90;;;19.80;70.10;;;;;;5077615;28;20208;-57
2023/02/06 01:55:06;;;;;;;1.45;0.90;;;19.80;70.10;;;;;;5070987;28;20667;-55
2023/02/06 01:57:34;;;;;;;1.27;1.00;;;19.80;70.00;;;;;;5075719;28;20196;-63
2023/02/06 02:00:05;;;;;;;0.98;0.88;;;19.80;70.10;;;;;;5070693;28;20204;-55
2023/02/06 02:02:33;;;;;;;1.20;0.90;;;19.80;70.00;;;;;;5085838;28;20549;-52
2023/02/06 02:05:01;;;;;;;1.88;0.88;;;19.80;70.10;;;;;;5075996;28;20284;-56
2023/02/06 02:07:33;;;;;;;1.42;0.90;;;19.80;70.00;;;;;;5082704;28;20200;-55
2023/02/06 02:09:59;;;;;;;1.38;1.00;;;19.80;70.10;;;;;;5076259;28;20193;-54
2023/02/06 02:12:26;;;;;;;1.38;0.90;;;19.80;70.10;;;;;;5077738;28;20216;-54
2023/02/06 02:14:54;;;;;;;1.58;0.80;;;19.80;70.10;;;;;;5070409;28;20539;-56
2023/02/06 02:17:31;;;;;;;1.27;0.95;;;19.80;70.00;;;;;;5077204;28;20209;-53
2023/02/06 02:20:32;;;;;;;1.60;1.00;;;19.80;70.10;;;;;;5077150;28;20695;-55
2023/02/06 02:23:08;;;;;;;1.00;0.75;;;19.80;70.10;;;;;;5073125;28;20224;-56
2023/02/06 02:26:23;;;;;;;1.30;0.95;;;19.80;70.00;;;;;;5089658;28;20200;-57
2023/02/06 02:29:25;;;;;;;0.95;0.70;;;19.80;70.00;;;;;;5082722;28;20204;-53
2023/02/06 02:32:10;;;;;;;1.13;0.90;;;19.80;70.00;;;;;;5081329;28;20203;-57
2023/02/06 02:35:05;;;;;;;2.00;0.80;;;19.80;70.00;;;;;;5075710;28;20236;-59
2023/02/06 02:37:44;;;;;;;2.45;0.73;;;19.80;70.10;;;;;;5086971;28;20997;-54
2023/02/06 02:40:24;;;;;;;1.63;0.90;;;19.80;70.10;;;;;;5074634;28;20683;-59
2023/02/06 02:43:00;;;;;;;1.08;0.95;;;19.80;70.00;;;;;;5078989;28;20207;-58
2023/02/06 02:45:32;;;;;;;1.23;0.80;;;19.80;70.00;;;;;;5079258;28;20205;-58
2023/02/06 02:48:03;;;;;;;1.10;1.00;;;19.80;70.00;;;;;;5078829;28;20267;-60
2023/02/06 02:50:33;;;;;;;1.05;0.95;;;19.80;70.00;;;;;;5081696;28;20208;-53
2023/02/06 02:53:01;;;;;;;1.40;0.73;;;19.80;70.00;;;;;;5080774;28;20196;-58
2023/02/06 02:55:28;;;;;;;1.00;0.70;;;19.80;70.00;;;;;;5081128;28;20204;-54
2023/02/06 02:58:01;;;;;;;1.10;1.00;;;19.80;70.00;;;;;;5084410;28;20228;-52
2023/02/06 03:00:30;;;;;;;0.90;0.77;;;19.80;70.80;;;;;;5072833;28;20205;-60
2023/02/06 03:02:58;;;;;;;1.20;0.88;;;19.80;70.00;;;;;;5070076;28;20286;-50
2023/02/06 03:05:26;;;;;;;1.55;1.00;;;19.80;70.00;;;;;;5084208;28;20197;-54
2023/02/06 03:08:07;;;;;;;1.30;0.77;;;19.80;70.00;;;;;;5074330;28;20663;-54
2023/02/06 03:10:42;;;;;;;1.10;0.80;;;19.80;70.00;;;;;;5073094;28;20653;-55
2023/02/06 03:13:16;;;;;;;1.20;1.00;;;19.80;70.00;;;;;;5084622;28;20224;-60
2023/02/06 03:15:51;;;;;;;1.30;1.20;;;19.80;70.00;;;;;;5085250;28;20196;-55
2023/02/06 03:18:22;;;;;;;1.70;1.23;;;19.80;70.00;;;;;;5077770;28;20193;-53
2023/02/06 03:20:50;;;;;;;1.33;1.00;;;19.80;70.70;;;;;;5070433;28;20237;-54
2023/02/06 03:23:23;;;;;;;1.15;1.02;;;19.80;69.90;;;;;;5085744;28;20672;-53
2023/02/06 03:25:54;;;;;;;1.15;0.95;;;19.80;69.90;;;;;;5083878;28;20200;-58
2023/02/06 03:28:25;;;;;;;1.38;0.90;;;19.80;69.90;;;;;;5083146;28;20196;-61
2023/02/06 03:30:58;;;;;;;1.63;1.08;;;19.80;70.00;;;;;;5077284;28;20232;-58
2023/02/06 03:33:30;;;;;;;1.38;1.20;;;19.80;69.90;;;;;;5075306;28;20194;-55
2023/02/06 03:35:57;;;;;;;1.40;0.75;;;19.80;69.90;;;;;;5069981;28;20200;-56
2023/02/06 03:38:27;;;;;;;1.30;0.80;;;19.90;70.00;;;;;;5073095;28;20202;-55
2023/02/06 03:40:56;;;;;;;1.00;0.90;;;19.90;70.00;;;;;;5077360;28;20221;-57
2023/02/06 03:43:27;;;;;;;1.52;0.88;;;19.90;69.90;;;;;;5072974;28;20200;-54
2023/02/06 03:45:59;;;;;;;2.13;0.90;;;19.90;69.90;;;;;;5077687;28;20193;-57
2023/02/06 03:48:31;;;;;;;1.20;0.90;;;19.90;70.00;;;;;;5081241;28;20222;-50
2023/02/06 03:51:01;;;;;;;1.20;0.98;;;19.90;70.00;;;;;;5074714;28;20207;-60
2023/02/06 03:53:32;;;;;;;1.75;0.80;;;19.90;69.90;;;;;;5080999;28;20284;-62
2023/02/06 03:56:03;;;;;;;1.58;1.05;;;19.90;69.90;;;;;;5081646;28;20193;-52
2023/02/06 03:58:30;;;;;;;1.10;0.70;;;19.90;69.90;;;;;;5077455;28;20195;-59
2023/02/06 04:00:57;;;;;;;1.27;0.90;;;19.90;69.90;;;;;;5081178;28;20225;-52
2023/02/06 04:03:24;;;;;;;1.40;0.85;;;19.90;69.90;;;;;;5071270;28;20228;-60
2023/02/06 04:05:51;;;;;;;1.05;0.82;;;19.90;69.90;;;;;;5081183;28;20584;-53
2023/02/06 04:08:17;;;;;;;1.58;1.35;;;19.90;69.90;;;;;;5087038;28;20197;-53
2023/02/06 04:10:45;;;;;;;1.52;0.98;;;19.90;70.60;;;;;;5087314;28;20698;-57
2023/02/06 04:13:12;;;;;;;1.00;0.80;;;19.90;69.90;;;;;;5071182;28;20229;-60
2023/02/06 04:15:39;;;;;;;1.02;0.90;;;19.90;70.60;;;;;;5083749;28;20726;-56
2023/02/06 04:18:05;;;;;;;1.30;0.85;;;19.90;69.90;;;;;;5073890;28;20196;-54
2023/02/06 04:20:32;;;;;;;1.70;1.17;;;19.90;69.90;;;;;;5083856;28;20195;-63
2023/02/06 04:22:59;;;;;;;1.10;0.80;;;19.90;69.80;;;;;;5082159;28;20224;-59
2023/02/06 04:25:26;;;;;;;1.50;0.90;;;19.90;69.80;;;;;;5085005;28;20208;-59
2023/02/06 04:27:54;;;;;;;1.02;0.88;;;19.90;69.80;;;;;;5074970;28;20201;-55
2023/02/06 04:30:21;;;;;;;1.65;1.00;;;19.90;69.80;;;;;;5074611;28;20208;-56
2023/02/06 04:32:48;;;;;;;1.95;1.20;;;19.90;69.90;;;;;;5074938;28;20219;-51
2023/02/06 04:35:14;;;;;;;2.85;0.80;;;19.90;69.80;;;;;;5086549;28;20197;-56
2023/02/06 04:37:41;;;;;;;1.00;0.90;;;19.90;69.80;;;;;;5084816;28;20204;-53
2023/02/06 04:40:09;;;;;;;1.08;0.80;;;19.90;69.80;;;;;;5078047;28;20494;-55
2023/02/06 04:42:35;;;;;;;2.38;1.00;;;19.90;69.80;;;;;;5072925;28;20219;-54
2023/02/06 04:45:04;;;;;;;1.05;0.70;;;19.90;69.80;;;;;;5080364;28;20198;-54
2023/02/06 04:47:30;;;;;;;1.27;0.90;;;19.90;69.80;;;;;;5074795;28;20210;-56
2023/02/06 04:49:57;;;;;;;1.33;0.90;;;19.90;69.80;;;;;;5079420;28;20200;-54
2023/02/06 04:52:24;;;;;;;1.42;1.10;;;19.90;70.50;;;;;;5080468;28;20683;-55
2023/02/06 04:54:50;;;;;;;1.33;0.90;;;19.90;70.60;;;;;;5091562;28;20200;-57
2023/02/06 04:57:17;;;;;;;0.95;0.80;;;19.90;69.80;;;;;;5082559;28;20197;-57
2023/02/06 04:59:44;;;;;;;1.63;0.80;;;19.90;69.80;;;;;;5085737;28;20663;-51
2023/02/06 05:02:12;;;;;;;1.10;0.90;;;19.90;69.80;;;;;;5085702;28;20229;-60
2023/02/06 05:04:39;;;;;;;1.30;0.90;;;19.90;69.80;;;;;;5078433;28;20668;-59
2023/02/06 05:07:05;;;;;;;1.35;0.95;;;19.90;69.80;;;;;;5077895;28;20209;-55
2023/02/06 05:09:32;;;;;;;1.17;1.00;;;19.90;69.80;;;;;;5084731;28;20213;-55
2023/02/06 05:11:59;;;;;;;2.00;1.48;;;20.00;70.60;;;;;;5089005;28;20575;-57
2023/02/06 05:14:25;;;;;;;0.90;0.80;;;19.90;69.80;;;;;;5076314;28;20200;-57
2023/02/06 05:16:52;;;;;;;1.35;0.90;;;19.90;69.80;;;;;;5088166;28;20201;-50
2023/02/06 05:19:20;;;;;;;1.10;0.90;;;19.90;69.80;;;;;;5081715;28;20197;-56
2023/02/06 05:21:47;;;;;;;1.00;0.75;;;19.90;69.80;;;;;;5077644;28;20225;-53
2023/02/06 05:24:14;;;;;;;1.30;0.80;;;19.90;69.80;;;;;;5084650;28;20675;-53
2023/02/06 05:26:40;;;;;;;1.30;1.08;;;20.00;69.90;;;;;;5087469;28;20207;-57
2023/02/06 05:29:08;;;;;;;1.98;0.85;;;20.00;69.90;;;;;;5085501;28;20197;-54
2023/02/06 05:31:35;;;;;;;1.00;0.80;;;20.00;70.60;;;;;;5082550;28;20565;-53
2023/02/06 05:34:02;;;;;;;1.13;0.90;;;20.00;69.90;;;;;;5082283;28;20220;-53
2023/02/06 05:36:30;;;;;;;1.75;1.05;;;20.00;69.80;;;;;;5082863;28;20554;-58
2023/02/06 05:38:57;;;;;;;0.90;0.70;;;20.00;69.80;;;;;;5076509;28;20208;-58
2023/02/06 05:41:24;;;;;;;1.13;0.75;;;20.00;69.80;;;;;;5082950;28;21083;-54
2023/02/06 05:43:50;;;;;;;1.20;0.90;;;20.00;69.80;;;;;;5075560;28;20198;-53
2023/02/06 05:46:18;;;;;;;1.23;0.90;;;20.00;69.80;;;;;;5078749;28;20577;-58
2023/02/06 05:48:44;;;;;;;1.00;0.80;;;20.00;69.80;;;;;;5086854;28;20201;-54
2023/02/06 05:51:11;;;;;;;1.02;0.80;;;20.00;69.80;;;;;;5075893;28;20200;-55
2023/02/06 05:53:39;;;;;;;2.05;1.00;;;20.00;69.80;;;;;;5080556;28;20197;-57
2023/02/06 05:56:06;;;;;;;1.10;0.90;;;20.00;69.80;;;;;;5078872;28;20534;-54
2023/02/06 05:58:33;;;;;;;1.40;0.90;;;20.00;69.80;;;;;;5081384;28;20194;-54
2023/02/06 06:01:00;;;;;;;1.70;1.08;;;20.00;69.80;;;;;;5075523;28;20864;-55
2023/02/06 06:03:27;;;;;;;1.23;0.90;;;20.00;69.80;;;;;;5074500;28;20218;-51
2023/02/06 06:05:54;;;;;;;0.98;0.80;;;20.00;69.70;;;;;;5079103;28;20187;-55
2023/02/06 06:08:21;;;;;;;1.30;0.93;;;20.00;69.70;;;;;;5076948;28;20197;-52
2023/02/06 06:10:51;;;;;;;1.77;0.90;;;20.00;69.80;;;;;;5082658;28;20205;-52
2023/02/06 06:13:18;;;;;;;1.23;1.00;;;20.00;69.70;;;;;;5077731;28;20221;-52
2023/02/06 06:15:45;;;;;;;1.10;0.85;;;20.00;70.50;;;;;;5080274;28;20209;-54
2023/02/06 06:18:11;;;;;;;1.45;1.02;;;20.00;69.70;;;;;;5087479;28;20206;-57
2023/02/06 06:20:38;;;;;;;1.10;0.80;;;20.00;69.70;;;;;;5075835;28;20284;-57
2023/02/06 06:23:05;;;;;;;1.23;0.90;;;20.00;69.70;;;;;;5080670;28;20216;-54
2023/02/06 06:25:31;;;;;;;1.00;0.85;;;20.00;69.60;;;;;;5084755;28;20201;-55
2023/02/06 06:27:59;;;;;;;1.00;0.90;;;20.00;69.60;;;;;;5081522;28;20205;-57
2023/02/06 06:30:26;;;;;;;1.30;0.98;;;20.00;69.70;;;;;;5079795;28;20213;-56
2023/02/06 06:32:53;;;;;;;1.58;1.00;;;20.00;69.60;;;;;;5080608;28;20212;-63
2023/02/06 06:35:20;;;;;;;1.00;0.75;;;20.00;69.60;;;;;;5088627;28;20198;-54
2023/02/06 06:37:47;;;;;;;1.00;0.80;;;20.00;69.60;;;;;;5090119;28;20212;-64
2023/02/06 06:40:14;;;;;;;1.02;0.80;;;20.00;69.60;;;;;;5077211;28;20201;-59
2023/02/06 06:42:40;;;;;;;1.30;0.90;;;20.00;69.70;;;;;;5090030;28;20217;-54
2023/02/06 06:45:09;;;;;;;1.67;0.90;;;20.00;69.70;;;;;;5080402;28;20189;-56
2023/02/06 06:47:36;;;;;;;1.40;0.80;;;19.90;69.60;;;;;;5075211;28;20217;-57
2023/02/06 06:50:02;;;;;;;1.20;0.80;;;19.90;69.60;;;;;;5085399;28;20211;-55
2023/02/06 06:52:29;;;;;;;1.08;0.75;;;19.90;69.60;;;;;;5086301;28;20208;-53
2023/02/06 06:54:56;;;;;;;1.23;0.80;;;19.90;69.70;;;;;;5087514;28;20196;-53
2023/02/06 06:57:23;;;;;;;1.20;0.90;;;19.90;69.60;;;;;;5086016;28;20575;-53
2023/02/06 06:59:50;;;;;;;0.93;0.75;;;19.90;69.60;;;;;;5083485;28;20318;-60
2023/02/06 07:02:18;;;;;;;1.00;0.82;;;19.90;69.60;;;;;;5072666;28;20739;-51
2023/02/06 07:04:45;;;;;;;1.13;0.90;;;19.90;69.50;;;;;;5084262;28;20201;-55
2023/02/06 07:07:11;;;;;;;1.25;0.90;;;19.90;69.60;;;;;;5090357;28;20204;-58
2023/02/06 07:09:38;;;;;;;1.10;0.80;;;19.90;69.50;;;;;;5078845;28;20201;-55
2023/02/06 07:12:06;;;;;;;1.80;1.05;;;20.00;69.60;;;;;;5075153;28;20241;-53
2023/02/06 07:14:32;;;;;;;1.13;0.80;;;20.00;69.60;;;;;;5069805;28;20668;-58
2023/02/06 07:17:00;;;;;;;1.10;0.77;;;20.00;69.60;;;;;;5072840;28;20199;-55
2023/02/06 07:19:28;;;;;;;1.13;0.70;;;20.00;69.60;;;;;;5087514;28;20194;-54
2023/02/06 07:21:55;;;;;;;1.10;0.85;;;20.00;69.50;;;;;;5078540;28;20187;-54
2023/02/06 07:24:21;;;;;;;1.27;0.80;;;20.00;69.50;;;;;;5069349;28;20207;-54
2023/02/06 07:26:48;;;;;;;1.20;0.88;;;20.00;69.50;;;;;;5077866;28;20206;-57
2023/02/06 07:29:15;;;;;;;1.20;1.00;;;20.00;69.50;;;;;;5071103;28;20533;-55
2023/02/06 07:31:41;;;;;;;1.40;1.02;;;20.00;69.50;;;;;;5076891;28;20208;-51
2023/02/06 07:34:08;;;;;;;1.27;0.90;;;20.00;69.50;;;;;;5073887;28;20573;-57
2023/02/06 07:36:36;;;;;;;1.00;0.90;;;20.00;69.50;;;;;;5082544;28;20213;-59
2023/02/06 07:39:03;;;;;;;0.93;0.70;;;20.00;69.50;;;;;;5080199;28;20277;-54
2023/02/06 07:41:30;;;;;;;1.52;0.90;;;20.00;69.50;;;;;;5072767;28;20195;-60
2023/02/06 07:43:57;;;;;;;1.30;0.80;;;20.00;69.50;;;;;;5079654;28;20222;-54
2023/02/06 07:46:24;;;;;;;0.93;0.80;;;20.00;69.50;;;;;;5081395;28;20560;-51
2023/02/06 07:48:50;;;;;;;2.47;1.00;;;20.00;69.50;;;;;;5070721;28;20190;-55
2023/02/06 07:51:17;;;;;;;1.20;1.00;;;20.00;69.40;;;;;;5072094;28;20222;-55
2023/02/06 07:53:45;;;;;;;1.00;0.70;;;20.00;69.50;;;;;;5085623;28;20201;-53
2023/02/06 07:56:14;;;;;;;1.27;0.90;;;20.00;69.40;;;;;;5075570;28;20578;-57
2023/02/06 07:58:41;;;;;;;1.10;0.90;;;20.00;69.50;;;;;;5079683;28;20199;-55
2023/02/06 08:01:07;;;;;;;1.27;0.85;;;20.00;69.40;;;;;;5078308;28;20195;-55
2023/02/06 08:03:35;;;;;;;1.55;0.98;;;20.00;69.50;;;;;;5081336;28;20234;-59
2023/02/06 08:06:06;;;;;;;1.00;0.90;;;20.00;69.50;;;;;;5081633;28;20212;-53
2023/02/06 08:08:33;;;;;;;2.30;0.98;;;20.00;69.40;;;;;;5086442;28;20209;-56
2023/02/06 08:11:04;;;;;;;1.13;0.82;;;20.00;69.40;;;;;;5080571;28;20200;-56
2023/02/06 08:13:31;;;;;;;1.15;0.75;;;20.00;69.50;;;;;;5072965;28;20585;-52
2023/02/06 08:15:58;;;;;;;7.82;3.53;;;20.00;69.50;;;;;;5079177;28;20200;-59
2023/02/06 08:18:25;;;;;;;5.93;3.30;;;18.90;58.80;;;;;;5069712;28;20197;-53
2023/02/06 08:20:51;;;;;;;3.33;2.58;;;18.00;56.70;;;;;;5078146;28;20200;-52
2023/02/06 08:23:18;;;;;;;2.53;2.08;;;18.20;60.00;;;;;;5079955;28;20218;-55
2023/02/06 08:25:45;;;;;;;1.90;1.70;;;18.70;62.50;;;;;;5077916;28;20199;-52
2023/02/06 08:28:15;;;;;;;6.88;1.85;;;19.00;62.70;;;;;;5082782;28;20193;-50
2023/02/06 08:30:42;;;;;;;3.60;1.55;;;19.20;63.40;;;;;;5073344;28;20275;-49
2023/02/06 08:33:09;;;;;;;2.33;1.52;;;19.40;64.00;;;;;;5080968;28;20206;-58
2023/02/06 08:35:35;;;;;;;1.65;1.50;;;19.40;64.30;;;;;;5084023;28;20201;-51
2023/02/06 08:38:02;;;;;;;1.50;1.05;;;19.50;65.60;;;;;;5076016;28;20200;-56
2023/02/06 08:40:29;;;;;;;1.58;1.40;;;19.50;64.70;;;;;;5073988;28;20208;-57
2023/02/06 08:42:55;;;;;;;1.50;1.40;;;19.50;64.60;;;;;;5075629;28;20221;-52
2023/02/06 08:45:24;;;;;;;1.75;1.33;;;19.50;64.80;;;;;;5075644;28;20197;-54
2023/02/06 08:47:50;;;;;;;2.15;1.45;;;19.50;64.80;;;;;;5073690;28;20192;-55
2023/02/06 08:50:17;;;;;;;1.60;1.30;;;19.50;65.00;;;;;;5072372;28;20204;-59
2023/02/06 08:52:44;;;;;;;2.30;1.17;;;19.60;65.30;;;;;;5076601;28;20572;-54
2023/02/06 08:55:11;;;;;;;2.10;1.40;;;19.60;65.60;;;;;;5075103;28;20200;-56
2023/02/06 08:57:37;;;;;;;1.75;1.40;;;19.60;66.00;;;;;;5072760;28;20880;-51
2023/02/06 09:00:05;;;;;;;2.55;1.58;;;19.60;66.20;;;;;;5071568;28;20195;-56
2023/02/06 09:02:34;;;;;;;1.95;1.17;;;19.60;66.40;;;;;;5076774;28;20206;-56
2023/02/06 09:05:01;;;;;;;1.73;1.38;;;19.60;66.70;;;;;;5074496;28;20205;-56
2023/02/06 09:07:28;;;;;;;1.98;1.23;;;19.50;66.70;;;;;;5075037;28;20206;-50
2023/02/06 09:09:54;;;;;;;1.55;1.30;;;19.50;66.90;;;;;;5071640;28;20206;-57
2023/02/06 09:12:21;;;;;;;1.60;1.30;;;19.50;66.90;;;;;;5071460;28;20216;-60
2023/02/06 09:14:48;;;;;;;1.50;1.30;;;19.50;67.00;;;;;;5074229;28;20208;-53
2023/02/06 09:17:15;;;;;;;2.80;1.50;;;19.50;67.10;;;;;;5072135;28;20399;-52
2023/02/06 09:19:43;;;;;;;1.30;1.10;;;19.50;67.20;;;;;;5070015;28;20205;-51
2023/02/06 09:22:10;;;;;;;1.25;1.13;;;19.50;67.30;;;;;;5076560;28;20195;-51
2023/02/06 09:24:37;;;;;;;2.10;1.80;;;19.50;67.30;;;;;;5067687;28;20231;-50
2023/02/06 09:27:04;;;;;;;1.08;0.95;;;19.50;67.40;;;;;;5068628;28;20207;-58
2023/02/06 09:29:31;;;;;;;1.95;1.33;;;19.50;67.40;;;;;;5080006;28;20192;-51
2023/02/06 09:31:58;;;;;;;2.13;1.10;;;19.50;67.50;;;;;;5074783;28;20297;-51
2023/02/06 09:34:26;;;;;;;1.48;1.10;;;19.40;67.40;;;;;;5076477;28;20201;-50
2023/02/06 09:36:55;;;;;;;2.17;1.30;;;19.40;68.20;;;;;;5075330;28;20200;-55
2023/02/06 09:39:22;;;;;;;2.10;1.25;;;19.40;68.40;;;;;;5076829;28;21425;-56
2023/02/06 09:41:51;;;;;;;1.90;1.50;;;19.40;67.50;;;;;;5073219;28;20201;-53
2023/02/06 09:44:22;;;;;;;1.30;1.00;;;19.40;67.60;;;;;;5073195;28;20243;-52
2023/02/06 09:46:52;;;;;;;2.33;1.50;;;19.40;67.60;;;;;;5075975;28;20220;-54
2023/02/06 09:49:24;;;;;;;1.38;1.00;;;19.40;67.60;;;;;;5079445;28;20208;-52
2023/02/06 09:52:06;;;;;;;1.35;1.20;;;19.40;67.60;;;;;;5075778;28;20193;-53
2023/02/06 09:54:41;;;;;;;1.55;0.95;;;19.40;67.70;;;;;;5073180;28;20200;-57
2023/02/06 09:57:15;;;;;;;1.48;1.17;;;19.40;67.80;;;;;;5077738;28;20196;-55
2023/02/06 09:59:44;;;;;;;1.60;1.50;;;19.30;67.80;;;;;;5088431;28;20215;-55
2023/02/06 10:02:27;;;;;;;1.30;1.20;;;19.30;67.80;;;;;;5082565;28;20203;-51
2023/02/06 10:04:59;;;;;;;2.25;1.17;;;19.30;67.80;;;;;;5080729;28;20643;-54
2023/02/06 10:07:51;;;;;;;1.02;0.90;;;19.30;68.60;;;;;;5082503;28;20202;-60
2023/02/06 10:10:22;;;;;;;1.58;1.17;;;19.30;67.90;;;;;;5081135;28;20200;-54
2023/02/06 10:13:00;;;;;;;2.22;1.27;;;19.30;68.00;;;;;;5078421;28;20348;-52
2023/02/06 10:15:32;;;;;;;1.63;1.10;;;19.30;68.00;;;;;;5077158;28;20210;-51
2023/02/06 10:18:05;;;;;;;1.52;1.20;;;19.30;68.10;;;;;;5083575;28;20188;-54
2023/02/06 10:20:34;;;;;;;1.65;1.05;;;19.30;68.90;;;;;;5082647;28;20195;-54
2023/02/06 10:23:11;;;;;;;8.48;1.40;;;19.30;68.90;;;;;;5079792;28;20223;-51
2023/02/06 10:25:42;;;;;;;1.63;1.15;;;19.30;68.90;;;;;;5080916;28;20218;-54
2023/02/06 10:28:21;;;;;;;4.85;1.60;;;19.30;68.90;;;;;;5082227;28;20196;-54
2023/02/06 10:30:59;;;;;;;2.10;1.50;;;19.30;69.00;;;;;;5079422;28;20200;-64
2023/02/06 10:33:35;;;;;;;3.95;2.55;;;19.30;69.10;;;;;;5081536;28;20206;-64
2023/02/06 10:36:09;;;;;;;3.03;1.60;;;19.30;69.10;;;;;;5080940;28;20198;-66
2023/02/06 10:39:06;;;;;;;2.17;1.20;;;19.40;69.20;;;;;;5082737;28;20669;-66
2023/02/06 10:41:43;;;;;;;2.47;1.25;;;19.40;69.10;;;;;;5079145;28;20193;-65
2023/02/06 10:44:19;;;;;;;1.85;1.30;;;19.50;69.30;;;;;;5083237;28;20230;-66
2023/02/06 10:46:49;;;;;;;1.50;1.20;;;19.50;69.40;;;;;;5075387;28;20439;-65
2023/02/06 10:49:23;;;;;;;1.83;1.15;;;19.60;69.60;;;;;;5070737;28;20208;-66
2023/02/06 10:51:54;;;;;;;1.88;1.23;;;19.60;69.50;;;;;;5074200;28;20200;-61
2023/02/06 10:54:24;;;;;;;2.70;1.30;;;19.70;69.90;;;;;;5073377;28;20217;-54
2023/02/06 10:56:53;;;;;;;1.10;0.90;;;19.70;70.00;;;;;;5070803;28;20233;-61
2023/02/06 10:59:26;;;;;;;1.42;1.17;;;19.80;70.20;;;;;;5082193;28;20208;-68
2023/02/06 11:02:01;;;;;;;1.70;1.60;;;19.80;70.10;;;;;;5073815;28;20205;-63
2023/02/06 11:04:33;;;;;;;1.35;1.00;;;19.80;70.00;;;;;;5061690;28;20233;-65
2023/02/06 11:07:05;;;;;;;1.17;1.00;;;19.90;69.80;;;;;;5076058;28;20287;-68
2023/02/06 11:09:33;;;;;;;2.97;1.30;;;19.90;70.10;;;;;;5087940;28;20280;-69
2023/02/06 11:12:01;;;;;;;4.35;1.10;;;19.90;70.00;;;;;;5073077;28;20215;-69
2023/02/06 11:14:32;;;;;;;1.20;0.90;;;20.00;70.10;;;;;;5074558;28;20205;-63
2023/02/06 11:17:00;;;;;;;1.48;1.20;;;20.00;70.80;;;;;;5078421;28;20198;-64
2023/02/06 11:19:31;;;;;;;2.25;1.33;;;20.00;69.90;;;;;;5087373;28;20202;-64
2023/02/06 11:22:09;;;;;;;1.50;1.10;;;20.10;70.40;;;;;;5082667;28;20281;-64
2023/02/06 11:24:38;;;;;;;1.65;1.35;;;20.10;69.90;;;;;;5082795;28;20712;-59
2023/02/06 11:27:14;;;;;;;2.75;1.10;;;20.10;69.90;;;;;;5068094;28;20200;-59
2023/02/06 11:29:45;;;;;;;1.45;1.25;;;20.10;69.70;;;;;;5071277;28;20202;-61
2023/02/06 11:32:28;;;;;;;1.02;0.90;;;20.20;69.80;;;;;;5080604;28;20198;-61
2023/02/06 11:34:58;;;;;;;1.58;1.20;;;20.20;69.80;;;;;;5071580;28;20572;-66
2023/02/06 11:37:31;;;;;;;4.63;1.45;;;20.20;69.80;;;;;;5080387;28;20198;-63
2023/02/06 11:40:20;;;;;;;1.23;1.10;;;20.20;69.80;;;;;;5078981;28;20230;-65
2023/02/06 11:42:51;;;;;;;1.35;1.10;;;20.20;69.80;;;;;;5080278;28;20198;-66
2023/02/06 11:45:24;;;;;;;3.08;1.30;;;20.20;69.90;;;;;;5078545;28;20277;-65
2023/02/06 11:47:51;;;;;;;2.33;1.60;;;20.20;70.00;;;;;;5074381;28;20213;-71
2023/02/06 11:50:27;;;;;;;1.50;1.13;;;20.20;70.00;;;;;;5076260;28;20199;-69
2023/02/06 11:52:59;;;;;;;2.67;1.17;;;20.20;69.90;;;;;;5075685;28;20190;-67
2023/02/06 11:55:29;;;;;;;1.80;1.20;;;20.30;70.00;;;;;;5078123;28;20194;-66
2023/02/06 11:58:05;;;;;;;1.93;1.17;;;20.30;70.00;;;;;;5072686;28;20199;-67
2023/02/06 12:00:32;;;;;;;1.58;1.30;;;20.40;70.10;;;;;;5073385;28;20471;-68
2023/02/06 12:02:59;;;;;;;2.40;1.30;;;20.40;70.10;;;;;;5071128;28;20211;-69
2023/02/06 12:05:32;;;;;;;1.65;1.23;;;20.40;70.20;;;;;;5082435;28;20715;-67
2023/02/06 12:08:02;;;;;;;3.90;1.00;;;20.40;70.30;;;;;;5073596;28;20637;-70
2023/02/06 12:10:34;;;;;;;1.20;1.00;;;20.40;70.30;;;;;;5078571;28;20975;-70
2023/02/06 12:13:05;;;;;;;2.83;1.57;;;20.40;70.30;;;;;;5082678;28;20485;-66
2023/02/06 12:15:37;;;;;;;1.30;1.20;;;20.50;70.40;;;;;;5079273;28;20460;-69
2023/02/06 12:18:09;;;;;;;1.80;1.50;;;20.50;70.50;;;;;;5074813;28;20495;-69
2023/02/06 12:20:49;;;;;;;1.90;0.93;;;20.50;70.40;;;;;;5071896;28;20951;-65
2023/02/06 12:23:21;;;;;;;1.67;1.10;;;20.50;70.40;;;;;;5075947;28;20463;-63
2023/02/06 12:25:54;;;;;;;1.40;1.10;;;20.50;70.40;;;;;;5080688;28;20198;-62
2023/02/06 12:28:25;;;;;;;1.10;1.00;;;20.60;70.60;;;;;;5074789;28;20800;-65
2023/02/06 12:30:56;;;;;;;1.93;1.00;;;20.60;70.60;;;;;;5076070;28;20500;-67
2023/02/06 12:33:32;;;;;;;2.33;1.00;;;20.60;71.30;;;;;;5086352;28;20509;-66
2023/02/06 12:36:04;;;;;;;1.10;0.90;;;20.60;70.60;;;;;;5086236;28;20617;-67
2023/02/06 12:38:42;;;;;;;1.50;1.07;;;20.60;70.60;;;;;;5075530;28;20456;-66
2023/02/06 12:41:29;;;;;;;1.90;1.10;;;20.60;70.70;;;;;;5072010;28;20774;-63
2023/02/06 12:44:00;;;;;;;1.70;1.10;;;20.60;70.80;;;;;;5068088;28;20499;-66
2023/02/06 12:46:28;;;;;;;2.30;1.23;;;20.60;70.90;;;;;;5067198;28;20456;-64
2023/02/06 12:49:03;;;;;;;1.40;1.10;;;20.60;71.10;;;;;;5073732;28;20203;-68
2023/02/06 12:51:36;;;;;;;3.10;1.10;;;20.60;71.20;;;;;;5078946;28;20506;-64
2023/02/06 12:54:06;;;;;;;1.60;0.93;;;20.60;71.30;;;;;;5078127;28;20459;-64
2023/02/06 12:56:40;;;;;;;1.38;1.00;;;20.60;71.30;;;;;;5075695;28;20460;-64
2023/02/06 12:59:28;;;;;;;1.50;1.07;;;20.60;71.30;;;;;;5077825;28;20191;-63
2023/02/06 13:02:01;;;;;;;6.85;1.23;;;20.60;71.30;;;;;;5073486;28;20460;-65